sensor_id;sensor_type;location;lat;lon;timestamp;P1;durP1;ratioP1;P2;durP2;ratioP2
5456;SDS011;2751;49.802;9.944;2023-05-09T00:01:27;9.30;;;8.40;;
5456;SDS011;2751;49.802;9.944;2023-05-09T00:03:55;9.30;;;8.50;;
5456;SDS011;2751;49.802;9.944;2023-05-09T00:06:22;9.53;;;8.60;;
5456;SDS011;2751;49.802;9.944;2023-05-09T00:08:50;8.53;;;7.83;;
5456;SDS011;2751;49.802;9.944;2023-05-09T00:11:16;11.03;;;9.13;;
5456;SDS011;2751;49.802;9.944;2023-05-09T00:13:45;9.03;;;8.13;;
5456;SDS011;2751;49.802;9.944;2023-05-09T00:16:12;9.23;;;8.33;;
5456;SDS011;2751;49.802;9.944;2023-05-09T00:18:39;8.70;;;7.97;;
5456;SDS011;2751;49.802;9.944;2023-05-09T00:21:07;8.27;;;7.60;;
5456;SDS011;2751;49.802;9.944;2023-05-09T00:23:35;8.87;;;8.07;;
5456;SDS011;2751;49.802;9.944;2023-05-09T00:26:02;8.83;;;8.03;;
5456;SDS011;2751;49.802;9.944;2023-05-09T00:28:29;8.70;;;7.70;;
5456;SDS011;2751;49.802;9.944;2023-05-09T00:30:57;8.93;;;8.13;;
5456;SDS011;2751;49.802;9.944;2023-05-09T00:33:24;9.47;;;8.57;;
5456;SDS011;2751;49.802;9.944;2023-05-09T00:35:51;9.27;;;8.30;;
5456;SDS011;2751;49.802;9.944;2023-05-09T00:38:18;9.00;;;8.13;;
5456;SDS011;2751;49.802;9.944;2023-05-09T00:40:45;9.20;;;8.30;;
5456;SDS011;2751;49.802;9.944;2023-05-09T00:43:12;9.40;;;8.50;;
5456;SDS011;2751;49.802;9.944;2023-05-09T00:45:39;8.23;;;7.53;;
5456;SDS011;2751;49.802;9.944;2023-05-09T00:48:07;9.67;;;8.53;;
5456;SDS011;2751;49.802;9.944;2023-05-09T00:50:34;10.07;;;9.07;;
5456;SDS011;2751;49.802;9.944;2023-05-09T00:53:02;9.10;;;8.30;;
5456;SDS011;2751;49.802;9.944;2023-05-09T00:55:29;9.10;;;8.30;;
5456;SDS011;2751;49.802;9.944;2023-05-09T00:57:56;8.93;;;8.13;;
5456;SDS011;2751;49.802;9.944;2023-05-09T01:00:23;8.43;;;7.73;;
5456;SDS011;2751;49.802;9.944;2023-05-09T01:02:51;10.50;;;8.20;;
5456;SDS011;2751;49.802;9.944;2023-05-09T01:05:21;8.27;;;7.63;;
5456;SDS011;2751;49.802;9.944;2023-05-09T01:07:51;10.13;;;9.23;;
5456;SDS011;2751;49.802;9.944;2023-05-09T01:10:29;9.40;;;8.60;;
5456;SDS011;2751;49.802;9.944;2023-05-09T01:13:05;8.80;;;7.80;;
5456;SDS011;2751;49.802;9.944;2023-05-09T01:15:45;9.20;;;8.30;;
5456;SDS011;2751;49.802;9.944;2023-05-09T01:18:19;10.03;;;8.07;;
5456;SDS011;2751;49.802;9.944;2023-05-09T01:20:55;9.40;;;8.40;;
5456;SDS011;2751;49.802;9.944;2023-05-09T01:23:45;8.60;;;7.80;;
5456;SDS011;2751;49.802;9.944;2023-05-09T01:26:34;8.80;;;8.00;;
5456;SDS011;2751;49.802;9.944;2023-05-09T01:32:01;8.50;;;7.60;;
5456;SDS011;2751;49.802;9.944;2023-05-09T01:34:31;8.47;;;7.77;;
5456;SDS011;2751;49.802;9.944;2023-05-09T01:37:00;7.93;;;7.30;;
5456;SDS011;2751;49.802;9.944;2023-05-09T01:39:28;7.73;;;6.97;;
5456;SDS011;2751;49.802;9.944;2023-05-09T01:41:59;8.47;;;7.67;;
5456;SDS011;2751;49.802;9.944;2023-05-09T01:44:28;7.90;;;7.20;;
5456;SDS011;2751;49.802;9.944;2023-05-09T01:47:00;7.40;;;6.80;;
5456;SDS011;2751;49.802;9.944;2023-05-09T01:49:29;8.10;;;7.50;;
5456;SDS011;2751;49.802;9.944;2023-05-09T01:51:58;8.80;;;7.57;;
5456;SDS011;2751;49.802;9.944;2023-05-09T01:54:28;7.90;;;7.30;;
5456;SDS011;2751;49.802;9.944;2023-05-09T01:56:58;9.87;;;7.50;;
5456;SDS011;2751;49.802;9.944;2023-05-09T01:59:26;7.63;;;7.03;;
5456;SDS011;2751;49.802;9.944;2023-05-09T02:01:56;8.70;;;7.90;;
5456;SDS011;2751;49.802;9.944;2023-05-09T02:04:23;8.23;;;7.53;;
5456;SDS011;2751;49.802;9.944;2023-05-09T02:06:50;8.10;;;7.30;;
5456;SDS011;2751;49.802;9.944;2023-05-09T02:09:18;8.80;;;7.90;;
5456;SDS011;2751;49.802;9.944;2023-05-09T02:11:45;8.30;;;7.60;;
5456;SDS011;2751;49.802;9.944;2023-05-09T02:14:12;8.60;;;7.80;;
5456;SDS011;2751;49.802;9.944;2023-05-09T02:16:40;8.50;;;7.70;;
5456;SDS011;2751;49.802;9.944;2023-05-09T02:19:08;9.83;;;7.90;;
5456;SDS011;2751;49.802;9.944;2023-05-09T02:21:35;8.20;;;7.57;;
5456;SDS011;2751;49.802;9.944;2023-05-09T02:24:02;9.03;;;7.63;;
5456;SDS011;2751;49.802;9.944;2023-05-09T02:26:30;8.77;;;7.97;;
5456;SDS011;2751;49.802;9.944;2023-05-09T02:28:57;8.53;;;7.70;;
5456;SDS011;2751;49.802;9.944;2023-05-09T02:31:25;9.17;;;8.27;;
5456;SDS011;2751;49.802;9.944;2023-05-09T02:33:54;10.70;;;7.83;;
5456;SDS011;2751;49.802;9.944;2023-05-09T02:36:23;8.83;;;7.70;;
5456;SDS011;2751;49.802;9.944;2023-05-09T02:38:50;8.70;;;7.90;;
5456;SDS011;2751;49.802;9.944;2023-05-09T02:41:17;8.43;;;7.63;;
5456;SDS011;2751;49.802;9.944;2023-05-09T02:43:44;9.00;;;7.73;;
5456;SDS011;2751;49.802;9.944;2023-05-09T02:46:11;8.60;;;7.90;;
5456;SDS011;2751;49.802;9.944;2023-05-09T02:48:38;9.30;;;8.30;;
5456;SDS011;2751;49.802;9.944;2023-05-09T02:51:05;9.50;;;8.50;;
5456;SDS011;2751;49.802;9.944;2023-05-09T02:53:33;14.83;;;9.33;;
5456;SDS011;2751;49.802;9.944;2023-05-09T02:56:00;12.50;;;11.23;;
5456;SDS011;2751;49.802;9.944;2023-05-09T02:58:28;9.67;;;8.77;;
5456;SDS011;2751;49.802;9.944;2023-05-09T03:00:54;9.33;;;8.40;;
5456;SDS011;2751;49.802;9.944;2023-05-09T03:03:21;11.73;;;8.57;;
5456;SDS011;2751;49.802;9.944;2023-05-09T03:05:49;10.57;;;8.77;;
5456;SDS011;2751;49.802;9.944;2023-05-09T03:08:16;9.30;;;8.40;;
5456;SDS011;2751;49.802;9.944;2023-05-09T03:10:44;9.60;;;8.70;;
5456;SDS011;2751;49.802;9.944;2023-05-09T03:13:11;11.50;;;8.50;;
5456;SDS011;2751;49.802;9.944;2023-05-09T03:15:38;11.80;;;8.33;;
5456;SDS011;2751;49.802;9.944;2023-05-09T03:18:05;10.57;;;8.27;;
5456;SDS011;2751;49.802;9.944;2023-05-09T03:20:32;10.00;;;8.90;;
5456;SDS011;2751;49.802;9.944;2023-05-09T03:22:59;9.50;;;8.50;;
5456;SDS011;2751;49.802;9.944;2023-05-09T03:25:25;9.10;;;8.20;;
5456;SDS011;2751;49.802;9.944;2023-05-09T03:27:54;9.23;;;8.20;;
5456;SDS011;2751;49.802;9.944;2023-05-09T03:30:20;9.10;;;8.20;;
5456;SDS011;2751;49.802;9.944;2023-05-09T03:32:47;10.83;;;8.93;;
5456;SDS011;2751;49.802;9.944;2023-05-09T03:35:14;9.40;;;8.50;;
5456;SDS011;2751;49.802;9.944;2023-05-09T03:37:41;18.10;;;8.60;;
5456;SDS011;2751;49.802;9.944;2023-05-09T03:40:08;9.70;;;8.50;;
5456;SDS011;2751;49.802;9.944;2023-05-09T03:42:35;11.80;;;8.77;;
5456;SDS011;2751;49.802;9.944;2023-05-09T03:45:04;9.30;;;8.33;;
5456;SDS011;2751;49.802;9.944;2023-05-09T03:47:32;10.27;;;9.27;;
5456;SDS011;2751;49.802;9.944;2023-05-09T03:49:59;10.43;;;8.37;;
5456;SDS011;2751;49.802;9.944;2023-05-09T03:52:26;11.73;;;8.57;;
5456;SDS011;2751;49.802;9.944;2023-05-09T03:54:52;9.50;;;8.60;;
5456;SDS011;2751;49.802;9.944;2023-05-09T03:57:19;9.17;;;8.27;;
5456;SDS011;2751;49.802;9.944;2023-05-09T03:59:46;9.50;;;8.53;;
5456;SDS011;2751;49.802;9.944;2023-05-09T04:02:14;11.30;;;9.00;;
5456;SDS011;2751;49.802;9.944;2023-05-09T04:04:41;9.30;;;8.47;;
5456;SDS011;2751;49.802;9.944;2023-05-09T04:07:08;10.07;;;9.13;;
5456;SDS011;2751;49.802;9.944;2023-05-09T04:09:35;10.20;;;9.10;;
5456;SDS011;2751;49.802;9.944;2023-05-09T04:12:02;10.93;;;9.47;;
5456;SDS011;2751;49.802;9.944;2023-05-09T04:14:29;11.97;;;8.77;;
5456;SDS011;2751;49.802;9.944;2023-05-09T04:16:56;10.13;;;9.13;;
5456;SDS011;2751;49.802;9.944;2023-05-09T04:19:24;10.27;;;9.27;;
5456;SDS011;2751;49.802;9.944;2023-05-09T04:21:51;10.93;;;9.73;;
5456;SDS011;2751;49.802;9.944;2023-05-09T04:24:18;9.07;;;8.27;;
5456;SDS011;2751;49.802;9.944;2023-05-09T04:26:46;10.33;;;8.70;;
5456;SDS011;2751;49.802;9.944;2023-05-09T04:29:13;10.07;;;9.07;;
5456;SDS011;2751;49.802;9.944;2023-05-09T04:31:40;12.40;;;9.80;;
5456;SDS011;2751;49.802;9.944;2023-05-09T04:34:07;10.03;;;9.13;;
5456;SDS011;2751;49.802;9.944;2023-05-09T04:36:35;9.90;;;8.90;;
5456;SDS011;2751;49.802;9.944;2023-05-09T04:39:02;9.97;;;8.97;;
5456;SDS011;2751;49.802;9.944;2023-05-09T04:41:29;9.97;;;9.07;;
5456;SDS011;2751;49.802;9.944;2023-05-09T04:43:56;10.93;;;10.03;;
5456;SDS011;2751;49.802;9.944;2023-05-09T04:46:23;10.60;;;9.50;;
5456;SDS011;2751;49.802;9.944;2023-05-09T04:48:51;11.77;;;10.57;;
5456;SDS011;2751;49.802;9.944;2023-05-09T04:51:19;11.37;;;9.60;;
5456;SDS011;2751;49.802;9.944;2023-05-09T04:53:47;10.87;;;9.87;;
5456;SDS011;2751;49.802;9.944;2023-05-09T04:56:14;11.60;;;10.50;;
5456;SDS011;2751;49.802;9.944;2023-05-09T04:58:41;11.57;;;10.57;;
5456;SDS011;2751;49.802;9.944;2023-05-09T05:01:07;11.17;;;10.13;;
5456;SDS011;2751;49.802;9.944;2023-05-09T05:03:34;11.50;;;10.50;;
5456;SDS011;2751;49.802;9.944;2023-05-09T05:06:01;12.97;;;11.57;;
5456;SDS011;2751;49.802;9.944;2023-05-09T05:08:28;10.63;;;9.63;;
5456;SDS011;2751;49.802;9.944;2023-05-09T05:10:56;11.63;;;10.43;;
5456;SDS011;2751;49.802;9.944;2023-05-09T05:13:23;10.83;;;9.87;;
5456;SDS011;2751;49.802;9.944;2023-05-09T05:15:50;11.17;;;10.00;;
5456;SDS011;2751;49.802;9.944;2023-05-09T05:18:17;12.60;;;10.57;;
5456;SDS011;2751;49.802;9.944;2023-05-09T05:20:44;12.70;;;11.00;;
5456;SDS011;2751;49.802;9.944;2023-05-09T05:23:11;12.07;;;10.87;;
5456;SDS011;2751;49.802;9.944;2023-05-09T05:25:37;11.40;;;10.30;;
5456;SDS011;2751;49.802;9.944;2023-05-09T05:28:06;14.33;;;10.43;;
5456;SDS011;2751;49.802;9.944;2023-05-09T05:30:33;12.00;;;10.70;;
5456;SDS011;2751;49.802;9.944;2023-05-09T05:32:59;12.13;;;9.90;;
5456;SDS011;2751;49.802;9.944;2023-05-09T05:35:26;11.33;;;9.83;;
5456;SDS011;2751;49.802;9.944;2023-05-09T05:37:53;11.17;;;9.93;;
5456;SDS011;2751;49.802;9.944;2023-05-09T05:40:20;11.00;;;10.00;;
5456;SDS011;2751;49.802;9.944;2023-05-09T05:42:47;11.20;;;10.10;;
5456;SDS011;2751;49.802;9.944;2023-05-09T05:45:16;13.20;;;11.60;;
5456;SDS011;2751;49.802;9.944;2023-05-09T05:47:42;10.93;;;9.70;;
5456;SDS011;2751;49.802;9.944;2023-05-09T05:50:09;14.20;;;10.93;;
5456;SDS011;2751;49.802;9.944;2023-05-09T05:52:37;11.50;;;10.30;;
5456;SDS011;2751;49.802;9.944;2023-05-09T05:55:04;15.03;;;11.40;;
5456;SDS011;2751;49.802;9.944;2023-05-09T05:57:31;13.80;;;11.30;;
5456;SDS011;2751;49.802;9.944;2023-05-09T05:59:59;12.20;;;11.00;;
5456;SDS011;2751;49.802;9.944;2023-05-09T06:02:31;13.50;;;11.03;;
5456;SDS011;2751;49.802;9.944;2023-05-09T06:04:58;12.00;;;10.80;;
5456;SDS011;2751;49.802;9.944;2023-05-09T06:07:24;11.10;;;10.00;;
5456;SDS011;2751;49.802;9.944;2023-05-09T06:09:52;14.73;;;11.30;;
5456;SDS011;2751;49.802;9.944;2023-05-09T06:12:19;12.40;;;10.40;;
5456;SDS011;2751;49.802;9.944;2023-05-09T06:14:46;11.83;;;10.73;;
5456;SDS011;2751;49.802;9.944;2023-05-09T06:17:12;10.40;;;9.40;;
5456;SDS011;2751;49.802;9.944;2023-05-09T06:19:41;11.30;;;10.20;;
5456;SDS011;2751;49.802;9.944;2023-05-09T06:22:08;12.10;;;10.03;;
5456;SDS011;2751;49.802;9.944;2023-05-09T06:24:35;11.63;;;10.43;;
5456;SDS011;2751;49.802;9.944;2023-05-09T06:27:02;11.00;;;10.00;;
5456;SDS011;2751;49.802;9.944;2023-05-09T06:29:30;28.40;;;9.50;;
5456;SDS011;2751;49.802;9.944;2023-05-09T06:31:57;11.00;;;9.10;;
5456;SDS011;2751;49.802;9.944;2023-05-09T06:34:24;10.20;;;9.27;;
5456;SDS011;2751;49.802;9.944;2023-05-09T06:36:53;11.90;;;8.40;;
5456;SDS011;2751;49.802;9.944;2023-05-09T06:39:20;10.37;;;8.70;;
5456;SDS011;2751;49.802;9.944;2023-05-09T06:41:47;9.20;;;8.30;;
5456;SDS011;2751;49.802;9.944;2023-05-09T06:44:14;9.67;;;8.67;;
5456;SDS011;2751;49.802;9.944;2023-05-09T06:46:41;7.20;;;6.60;;
5456;SDS011;2751;49.802;9.944;2023-05-09T06:49:08;7.93;;;7.13;;
5456;SDS011;2751;49.802;9.944;2023-05-09T06:51:37;6.87;;;6.27;;
5456;SDS011;2751;49.802;9.944;2023-05-09T06:54:06;7.50;;;6.77;;
5456;SDS011;2751;49.802;9.944;2023-05-09T06:56:32;6.87;;;6.27;;
5456;SDS011;2751;49.802;9.944;2023-05-09T06:58:59;6.03;;;5.53;;
5456;SDS011;2751;49.802;9.944;2023-05-09T07:01:26;9.10;;;6.10;;
5456;SDS011;2751;49.802;9.944;2023-05-09T07:03:53;7.23;;;6.63;;
5456;SDS011;2751;49.802;9.944;2023-05-09T07:06:20;8.40;;;5.60;;
5456;SDS011;2751;49.802;9.944;2023-05-09T07:08:47;7.13;;;6.53;;
5456;SDS011;2751;49.802;9.944;2023-05-09T07:11:15;7.13;;;6.10;;
5456;SDS011;2751;49.802;9.944;2023-05-09T07:13:42;6.70;;;6.10;;
5456;SDS011;2751;49.802;9.944;2023-05-09T07:16:08;8.17;;;6.10;;
5456;SDS011;2751;49.802;9.944;2023-05-09T07:18:35;6.47;;;5.87;;
5456;SDS011;2751;49.802;9.944;2023-05-09T07:21:02;7.53;;;6.83;;
5456;SDS011;2751;49.802;9.944;2023-05-09T07:23:29;12.40;;;6.13;;
5456;SDS011;2751;49.802;9.944;2023-05-09T07:25:56;6.90;;;6.20;;
5456;SDS011;2751;49.802;9.944;2023-05-09T07:28:25;6.53;;;5.97;;
5456;SDS011;2751;49.802;9.944;2023-05-09T07:30:51;8.87;;;6.13;;
5456;SDS011;2751;49.802;9.944;2023-05-09T07:33:20;7.57;;;6.97;;
5456;SDS011;2751;49.802;9.944;2023-05-09T07:35:47;6.80;;;6.20;;
5456;SDS011;2751;49.802;9.944;2023-05-09T07:38:14;6.93;;;6.23;;
5456;SDS011;2751;49.802;9.944;2023-05-09T07:40:41;6.60;;;6.10;;
5456;SDS011;2751;49.802;9.944;2023-05-09T07:43:08;6.93;;;6.00;;
5456;SDS011;2751;49.802;9.944;2023-05-09T07:45:36;6.60;;;6.00;;
5456;SDS011;2751;49.802;9.944;2023-05-09T07:48:03;6.83;;;6.17;;
5456;SDS011;2751;49.802;9.944;2023-05-09T07:50:30;6.73;;;6.13;;
5456;SDS011;2751;49.802;9.944;2023-05-09T07:52:57;7.40;;;6.80;;
5456;SDS011;2751;49.802;9.944;2023-05-09T07:55:24;7.33;;;6.73;;
5456;SDS011;2751;49.802;9.944;2023-05-09T07:57:51;6.50;;;6.00;;
5456;SDS011;2751;49.802;9.944;2023-05-09T08:00:18;5.83;;;5.43;;
5456;SDS011;2751;49.802;9.944;2023-05-09T08:02:49;6.60;;;5.90;;
5456;SDS011;2751;49.802;9.944;2023-05-09T08:05:16;6.67;;;6.07;;
5456;SDS011;2751;49.802;9.944;2023-05-09T08:07:43;6.33;;;5.73;;
5456;SDS011;2751;49.802;9.944;2023-05-09T08:10:11;5.90;;;5.40;;
5456;SDS011;2751;49.802;9.944;2023-05-09T08:12:38;6.63;;;6.03;;
5456;SDS011;2751;49.802;9.944;2023-05-09T08:15:06;5.83;;;5.43;;
5456;SDS011;2751;49.802;9.944;2023-05-09T08:17:33;6.70;;;6.10;;
5456;SDS011;2751;49.802;9.944;2023-05-09T08:20:01;6.20;;;5.70;;
5456;SDS011;2751;49.802;9.944;2023-05-09T08:22:30;8.63;;;5.53;;
5456;SDS011;2751;49.802;9.944;2023-05-09T08:24:56;5.80;;;5.20;;
5456;SDS011;2751;49.802;9.944;2023-05-09T08:27:23;5.90;;;5.30;;
5456;SDS011;2751;49.802;9.944;2023-05-09T08:29:50;6.20;;;5.70;;
5456;SDS011;2751;49.802;9.944;2023-05-09T08:32:17;7.90;;;7.10;;
5456;SDS011;2751;49.802;9.944;2023-05-09T08:34:44;6.50;;;5.60;;
5456;SDS011;2751;49.802;9.944;2023-05-09T08:37:13;6.60;;;6.10;;
5456;SDS011;2751;49.802;9.944;2023-05-09T08:39:39;6.57;;;5.80;;
5456;SDS011;2751;49.802;9.944;2023-05-09T08:42:06;6.80;;;6.10;;
5456;SDS011;2751;49.802;9.944;2023-05-09T08:44:34;6.93;;;6.33;;
5456;SDS011;2751;49.802;9.944;2023-05-09T08:47:02;8.67;;;5.77;;
5456;SDS011;2751;49.802;9.944;2023-05-09T08:49:30;6.07;;;5.57;;
5456;SDS011;2751;49.802;9.944;2023-05-09T08:51:57;7.00;;;5.97;;
5456;SDS011;2751;49.802;9.944;2023-05-09T08:54:26;6.47;;;5.90;;
5456;SDS011;2751;49.802;9.944;2023-05-09T08:56:54;5.27;;;4.87;;
5456;SDS011;2751;49.802;9.944;2023-05-09T08:59:21;6.10;;;5.60;;
5456;SDS011;2751;49.802;9.944;2023-05-09T09:01:49;5.77;;;5.20;;
5456;SDS011;2751;49.802;9.944;2023-05-09T09:04:17;7.00;;;6.10;;
5456;SDS011;2751;49.802;9.944;2023-05-09T09:06:44;4.50;;;4.10;;
5456;SDS011;2751;49.802;9.944;2023-05-09T09:09:11;5.27;;;4.87;;
5456;SDS011;2751;49.802;9.944;2023-05-09T09:11:41;5.13;;;4.57;;
5456;SDS011;2751;49.802;9.944;2023-05-09T09:14:10;5.23;;;4.77;;
5456;SDS011;2751;49.802;9.944;2023-05-09T09:16:39;4.70;;;4.40;;
5456;SDS011;2751;49.802;9.944;2023-05-09T09:19:08;9.47;;;4.70;;
5456;SDS011;2751;49.802;9.944;2023-05-09T09:21:38;4.70;;;4.30;;
5456;SDS011;2751;49.802;9.944;2023-05-09T09:24:07;4.53;;;4.23;;
5456;SDS011;2751;49.802;9.944;2023-05-09T09:26:38;3.97;;;3.67;;
5456;SDS011;2751;49.802;9.944;2023-05-09T09:29:12;4.50;;;4.10;;
5456;SDS011;2751;49.802;9.944;2023-05-09T09:31:42;7.17;;;3.10;;
5456;SDS011;2751;49.802;9.944;2023-05-09T09:34:10;3.73;;;2.90;;
5456;SDS011;2751;49.802;9.944;2023-05-09T09:36:38;3.13;;;2.90;;
5456;SDS011;2751;49.802;9.944;2023-05-09T09:39:05;3.00;;;2.80;;
5456;SDS011;2751;49.802;9.944;2023-05-09T09:41:34;2.70;;;2.50;;
5456;SDS011;2751;49.802;9.944;2023-05-09T09:44:09;4.50;;;3.03;;
5456;SDS011;2751;49.802;9.944;2023-05-09T09:46:40;2.63;;;2.43;;
5456;SDS011;2751;49.802;9.944;2023-05-09T09:49:08;2.53;;;2.43;;
5456;SDS011;2751;49.802;9.944;2023-05-09T09:51:35;3.40;;;2.90;;
5456;SDS011;2751;49.802;9.944;2023-05-09T09:54:03;2.60;;;2.40;;
5456;SDS011;2751;49.802;9.944;2023-05-09T09:56:42;2.67;;;2.57;;
5456;SDS011;2751;49.802;9.944;2023-05-09T09:59:12;2.50;;;2.30;;
5456;SDS011;2751;49.802;9.944;2023-05-09T10:04:26;4.30;;;2.80;;
5456;SDS011;2751;49.802;9.944;2023-05-09T10:06:56;3.30;;;3.00;;
5456;SDS011;2751;49.802;9.944;2023-05-09T10:09:24;3.97;;;3.10;;
5456;SDS011;2751;49.802;9.944;2023-05-09T10:11:51;2.80;;;2.70;;
5456;SDS011;2751;49.802;9.944;2023-05-09T10:14:22;5.67;;;5.23;;
5456;SDS011;2751;49.802;9.944;2023-05-09T10:16:50;2.20;;;2.10;;
5456;SDS011;2751;49.802;9.944;2023-05-09T10:19:20;2.20;;;2.07;;
5456;SDS011;2751;49.802;9.944;2023-05-09T10:21:48;2.07;;;1.97;;
5456;SDS011;2751;49.802;9.944;2023-05-09T10:24:17;2.30;;;2.20;;
5456;SDS011;2751;49.802;9.944;2023-05-09T10:26:52;3.90;;;2.80;;
5456;SDS011;2751;49.802;9.944;2023-05-09T10:29:26;2.47;;;2.27;;
5456;SDS011;2751;49.802;9.944;2023-05-09T10:31:56;3.13;;;2.30;;
5456;SDS011;2751;49.802;9.944;2023-05-09T10:34:26;2.90;;;2.80;;
5456;SDS011;2751;49.802;9.944;2023-05-09T10:36:56;2.60;;;2.40;;
5456;SDS011;2751;49.802;9.944;2023-05-09T10:39:25;2.07;;;1.97;;
5456;SDS011;2751;49.802;9.944;2023-05-09T10:41:52;2.43;;;2.33;;
5456;SDS011;2751;49.802;9.944;2023-05-09T10:44:20;3.37;;;2.20;;
5456;SDS011;2751;49.802;9.944;2023-05-09T10:46:51;4.27;;;2.73;;
5456;SDS011;2751;49.802;9.944;2023-05-09T10:49:18;3.00;;;2.67;;
5456;SDS011;2751;49.802;9.944;2023-05-09T10:51:46;3.07;;;2.30;;
5456;SDS011;2751;49.802;9.944;2023-05-09T10:54:24;1.97;;;1.87;;
5456;SDS011;2751;49.802;9.944;2023-05-09T10:56:52;3.00;;;2.80;;
5456;SDS011;2751;49.802;9.944;2023-05-09T10:59:33;2.80;;;2.60;;
5456;SDS011;2751;49.802;9.944;2023-05-09T11:02:03;3.53;;;2.50;;
5456;SDS011;2751;49.802;9.944;2023-05-09T11:04:36;2.90;;;2.70;;
5456;SDS011;2751;49.802;9.944;2023-05-09T11:07:05;3.47;;;2.50;;
5456;SDS011;2751;49.802;9.944;2023-05-09T11:09:49;3.87;;;2.40;;
5456;SDS011;2751;49.802;9.944;2023-05-09T11:12:18;2.70;;;2.53;;
5456;SDS011;2751;49.802;9.944;2023-05-09T11:14:46;3.67;;;2.67;;
5456;SDS011;2751;49.802;9.944;2023-05-09T11:17:27;2.83;;;2.73;;
5456;SDS011;2751;49.802;9.944;2023-05-09T11:19:56;5.33;;;2.63;;
5456;SDS011;2751;49.802;9.944;2023-05-09T11:22:30;2.47;;;2.37;;
5456;SDS011;2751;49.802;9.944;2023-05-09T11:25:03;2.67;;;2.47;;
5456;SDS011;2751;49.802;9.944;2023-05-09T11:27:36;2.40;;;2.30;;
5456;SDS011;2751;49.802;9.944;2023-05-09T11:30:08;4.50;;;2.67;;
5456;SDS011;2751;49.802;9.944;2023-05-09T11:32:48;5.87;;;2.37;;
5456;SDS011;2751;49.802;9.944;2023-05-09T11:35:17;2.13;;;2.03;;
5456;SDS011;2751;49.802;9.944;2023-05-09T11:37:46;2.27;;;2.10;;
5456;SDS011;2751;49.802;9.944;2023-05-09T11:40:15;2.30;;;2.20;;
5456;SDS011;2751;49.802;9.944;2023-05-09T11:42:43;2.03;;;1.90;;
5456;SDS011;2751;49.802;9.944;2023-05-09T11:45:10;2.90;;;2.00;;
5456;SDS011;2751;49.802;9.944;2023-05-09T11:47:38;2.13;;;2.03;;
5456;SDS011;2751;49.802;9.944;2023-05-09T11:50:08;2.30;;;2.10;;
5456;SDS011;2751;49.802;9.944;2023-05-09T11:52:36;1.90;;;1.80;;
5456;SDS011;2751;49.802;9.944;2023-05-09T11:55:04;1.90;;;1.80;;
5456;SDS011;2751;49.802;9.944;2023-05-09T11:57:33;2.20;;;2.10;;
5456;SDS011;2751;49.802;9.944;2023-05-09T12:00:00;2.13;;;2.00;;
5456;SDS011;2751;49.802;9.944;2023-05-09T12:02:29;2.00;;;1.90;;
5456;SDS011;2751;49.802;9.944;2023-05-09T12:04:56;2.60;;;1.80;;
5456;SDS011;2751;49.802;9.944;2023-05-09T12:07:34;2.20;;;2.10;;
5456;SDS011;2751;49.802;9.944;2023-05-09T12:10:03;3.27;;;1.90;;
5456;SDS011;2751;49.802;9.944;2023-05-09T12:12:32;4.60;;;2.30;;
5456;SDS011;2751;49.802;9.944;2023-05-09T12:15:01;2.10;;;2.00;;
5456;SDS011;2751;49.802;9.944;2023-05-09T12:17:29;2.10;;;2.00;;
5456;SDS011;2751;49.802;9.944;2023-05-09T12:19:57;2.37;;;2.13;;
5456;SDS011;2751;49.802;9.944;2023-05-09T12:22:24;4.10;;;1.90;;
5456;SDS011;2751;49.802;9.944;2023-05-09T12:24:54;2.63;;;2.23;;
5456;SDS011;2751;49.802;9.944;2023-05-09T12:27:21;2.20;;;2.00;;
5456;SDS011;2751;49.802;9.944;2023-05-09T12:29:50;4.00;;;2.20;;
5456;SDS011;2751;49.802;9.944;2023-05-09T12:32:17;1.93;;;1.77;;
5456;SDS011;2751;49.802;9.944;2023-05-09T12:34:44;2.67;;;1.70;;
5456;SDS011;2751;49.802;9.944;2023-05-09T12:37:12;1.70;;;1.60;;
5456;SDS011;2751;49.802;9.944;2023-05-09T12:39:40;2.60;;;1.80;;
5456;SDS011;2751;49.802;9.944;2023-05-09T12:42:11;3.13;;;1.70;;
5456;SDS011;2751;49.802;9.944;2023-05-09T12:44:39;2.10;;;2.00;;
5456;SDS011;2751;49.802;9.944;2023-05-09T12:47:07;1.70;;;1.60;;
5456;SDS011;2751;49.802;9.944;2023-05-09T12:49:38;1.97;;;1.87;;
5456;SDS011;2751;49.802;9.944;2023-05-09T12:52:05;1.43;;;1.40;;
5456;SDS011;2751;49.802;9.944;2023-05-09T12:54:44;1.90;;;1.80;;
5456;SDS011;2751;49.802;9.944;2023-05-09T12:57:20;3.67;;;2.03;;
5456;SDS011;2751;49.802;9.944;2023-05-09T12:59:48;1.83;;;1.50;;
5456;SDS011;2751;49.802;9.944;2023-05-09T13:02:15;2.10;;;1.70;;
5456;SDS011;2751;49.802;9.944;2023-05-09T13:04:43;1.83;;;1.73;;
5456;SDS011;2751;49.802;9.944;2023-05-09T13:07:09;2.00;;;1.90;;
5456;SDS011;2751;49.802;9.944;2023-05-09T13:09:43;2.20;;;2.10;;
5456;SDS011;2751;49.802;9.944;2023-05-09T13:12:23;2.13;;;2.00;;
5456;SDS011;2751;49.802;9.944;2023-05-09T13:14:50;2.00;;;1.90;;
5456;SDS011;2751;49.802;9.944;2023-05-09T13:17:17;2.80;;;2.07;;
5456;SDS011;2751;49.802;9.944;2023-05-09T13:19:44;2.70;;;2.07;;
5456;SDS011;2751;49.802;9.944;2023-05-09T13:22:11;1.70;;;1.70;;
5456;SDS011;2751;49.802;9.944;2023-05-09T13:24:38;1.77;;;1.67;;
5456;SDS011;2751;49.802;9.944;2023-05-09T13:27:05;2.00;;;1.90;;
5456;SDS011;2751;49.802;9.944;2023-05-09T13:29:36;2.93;;;1.97;;
5456;SDS011;2751;49.802;9.944;2023-05-09T13:32:03;2.17;;;2.00;;
5456;SDS011;2751;49.802;9.944;2023-05-09T13:34:31;1.70;;;1.60;;
5456;SDS011;2751;49.802;9.944;2023-05-09T13:36:58;2.03;;;1.80;;
5456;SDS011;2751;49.802;9.944;2023-05-09T13:39:25;2.00;;;1.90;;
5456;SDS011;2751;49.802;9.944;2023-05-09T13:41:51;3.53;;;1.80;;
5456;SDS011;2751;49.802;9.944;2023-05-09T13:44:18;1.70;;;1.60;;
5456;SDS011;2751;49.802;9.944;2023-05-09T13:46:46;1.80;;;1.70;;
5456;SDS011;2751;49.802;9.944;2023-05-09T13:49:13;1.53;;;1.53;;
5456;SDS011;2751;49.802;9.944;2023-05-09T13:51:40;1.50;;;1.50;;
5456;SDS011;2751;49.802;9.944;2023-05-09T13:54:07;4.83;;;1.73;;
5456;SDS011;2751;49.802;9.944;2023-05-09T13:56:36;1.93;;;1.70;;
5456;SDS011;2751;49.802;9.944;2023-05-09T13:59:04;1.80;;;1.70;;
5456;SDS011;2751;49.802;9.944;2023-05-09T14:01:32;1.83;;;1.73;;
5456;SDS011;2751;49.802;9.944;2023-05-09T14:04:00;2.23;;;1.90;;
5456;SDS011;2751;49.802;9.944;2023-05-09T14:06:27;1.73;;;1.63;;
5456;SDS011;2751;49.802;9.944;2023-05-09T14:08:54;1.40;;;1.40;;
5456;SDS011;2751;49.802;9.944;2023-05-09T14:11:21;3.13;;;1.60;;
5456;SDS011;2751;49.802;9.944;2023-05-09T14:13:50;1.37;;;1.27;;
5456;SDS011;2751;49.802;9.944;2023-05-09T14:16:17;1.70;;;1.60;;
5456;SDS011;2751;49.802;9.944;2023-05-09T14:18:44;1.30;;;1.20;;
5456;SDS011;2751;49.802;9.944;2023-05-09T14:21:13;1.13;;;1.13;;
5456;SDS011;2751;49.802;9.944;2023-05-09T14:23:40;1.43;;;1.43;;
5456;SDS011;2751;49.802;9.944;2023-05-09T14:26:07;1.87;;;1.47;;
5456;SDS011;2751;49.802;9.944;2023-05-09T14:28:34;1.20;;;1.20;;
5456;SDS011;2751;49.802;9.944;2023-05-09T14:31:02;1.20;;;1.20;;
5456;SDS011;2751;49.802;9.944;2023-05-09T14:33:29;1.50;;;1.40;;
5456;SDS011;2751;49.802;9.944;2023-05-09T14:35:58;2.30;;;1.17;;
5456;SDS011;2751;49.802;9.944;2023-05-09T14:38:28;2.43;;;1.50;;
5456;SDS011;2751;49.802;9.944;2023-05-09T14:40:57;1.53;;;1.43;;
5456;SDS011;2751;49.802;9.944;2023-05-09T14:43:23;1.20;;;1.20;;
5456;SDS011;2751;49.802;9.944;2023-05-09T14:45:50;1.23;;;1.23;;
5456;SDS011;2751;49.802;9.944;2023-05-09T14:48:17;1.77;;;1.67;;
5456;SDS011;2751;49.802;9.944;2023-05-09T14:50:44;1.43;;;1.40;;
5456;SDS011;2751;49.802;9.944;2023-05-09T14:53:11;1.43;;;1.10;;
5456;SDS011;2751;49.802;9.944;2023-05-09T14:55:39;1.70;;;1.53;;
5456;SDS011;2751;49.802;9.944;2023-05-09T14:58:06;1.90;;;1.40;;
5456;SDS011;2751;49.802;9.944;2023-05-09T15:00:33;1.87;;;1.77;;
5456;SDS011;2751;49.802;9.944;2023-05-09T15:03:00;3.27;;;1.47;;
5456;SDS011;2751;49.802;9.944;2023-05-09T15:05:27;1.90;;;1.60;;
5456;SDS011;2751;49.802;9.944;2023-05-09T15:07:54;1.70;;;1.60;;
5456;SDS011;2751;49.802;9.944;2023-05-09T15:10:20;1.30;;;1.30;;
5456;SDS011;2751;49.802;9.944;2023-05-09T15:12:49;1.63;;;1.53;;
5456;SDS011;2751;49.802;9.944;2023-05-09T15:15:16;1.50;;;1.40;;
5456;SDS011;2751;49.802;9.944;2023-05-09T15:17:44;1.60;;;1.50;;
5456;SDS011;2751;49.802;9.944;2023-05-09T15:20:11;1.90;;;1.80;;
5456;SDS011;2751;49.802;9.944;2023-05-09T15:22:39;2.40;;;1.90;;